sensor_id;sensor_type;location;lat;lon;timestamp;temperature;humidity
64918;HTU21D;52176;44.858;38.372;2023-02-21T00:01:56;0.57;81.91
64918;HTU21D;52176;44.858;38.372;2023-02-21T00:04:41;0.59;81.90
64918;HTU21D;52176;44.858;38.372;2023-02-21T00:07:25;0.62;81.92
64918;HTU21D;52176;44.858;38.372;2023-02-21T00:10:14;0.69;81.90
64918;HTU21D;52176;44.858;38.372;2023-02-21T00:13:00;0.78;81.83
64918;HTU21D;52176;44.858;38.372;2023-02-21T00:15:44;0.84;81.72
64918;HTU21D;52176;44.858;38.372;2023-02-21T00:18:35;0.92;81.59
64918;HTU21D;52176;44.858;38.372;2023-02-21T00:21:20;0.98;81.41
64918;HTU21D;52176;44.858;38.372;2023-02-21T00:24:05;1.08;81.21
64918;HTU21D;52176;44.858;38.372;2023-02-21T00:26:50;1.19;81.00
64918;HTU21D;52176;44.858;38.372;2023-02-21T00:29:34;1.26;80.69
64918;HTU21D;52176;44.858;38.372;2023-02-21T00:32:19;1.34;80.54
64918;HTU21D;52176;44.858;38.372;2023-02-21T00:35:04;1.40;80.45
64918;HTU21D;52176;44.858;38.372;2023-02-21T00:37:50;1.46;80.33
64918;HTU21D;52176;44.858;38.372;2023-02-21T00:40:35;1.48;80.28
64918;HTU21D;52176;44.858;38.372;2023-02-21T00:43:19;1.49;80.07
64918;HTU21D;52176;44.858;38.372;2023-02-21T00:46:03;1.51;80.24
64918;HTU21D;52176;44.858;38.372;2023-02-21T00:48:48;1.52;80.07
64918;HTU21D;52176;44.858;38.372;2023-02-21T00:51:32;1.53;79.91
64918;HTU21D;52176;44.858;38.372;2023-02-21T00:54:17;1.54;79.95
64918;HTU21D;52176;44.858;38.372;2023-02-21T00:57:01;1.55;79.89
64918;HTU21D;52176;44.858;38.372;2023-02-21T00:59:45;1.56;79.92
64918;HTU21D;52176;44.858;38.372;2023-02-21T01:02:30;1.60;79.70
64918;HTU21D;52176;44.858;38.372;2023-02-21T01:05:14;1.64;79.59
64918;HTU21D;52176;44.858;38.372;2023-02-21T01:07:58;1.67;79.82
64918;HTU21D;52176;44.858;38.372;2023-02-21T01:10:43;1.71;79.75
64918;HTU21D;52176;44.858;38.372;2023-02-21T01:13:27;1.77;79.55
64918;HTU21D;52176;44.858;38.372;2023-02-21T01:16:12;1.79;79.62
64918;HTU21D;52176;44.858;38.372;2023-02-21T01:18:57;1.81;79.60
64918;HTU21D;52176;44.858;38.372;2023-02-21T01:21:41;1.84;79.78
64918;HTU21D;52176;44.858;38.372;2023-02-21T01:24:25;1.90;79.76
64918;HTU21D;52176;44.858;38.372;2023-02-21T01:27:09;1.96;79.62
64918;HTU21D;52176;44.858;38.372;2023-02-21T01:29:54;2.02;79.46
64918;HTU21D;52176;44.858;38.372;2023-02-21T01:32:38;2.08;79.43
64918;HTU21D;52176;44.858;38.372;2023-02-21T01:35:23;2.13;79.35
64918;HTU21D;52176;44.858;38.372;2023-02-21T01:38:08;2.19;79.33
64918;HTU21D;52176;44.858;38.372;2023-02-21T01:40:52;2.24;79.34
64918;HTU21D;52176;44.858;38.372;2023-02-21T01:43:36;2.27;79.29
64918;HTU21D;52176;44.858;38.372;2023-02-21T01:46:21;2.31;79.13
64918;HTU21D;52176;44.858;38.372;2023-02-21T01:49:16;2.36;79.22
64918;HTU21D;52176;44.858;38.372;2023-02-21T01:52:02;2.42;79.08
64918;HTU21D;52176;44.858;38.372;2023-02-21T01:54:51;2.45;79.05
64918;HTU21D;52176;44.858;38.372;2023-02-21T01:57:38;2.52;79.00
64918;HTU21D;52176;44.858;38.372;2023-02-21T02:00:23;2.58;78.94
64918;HTU21D;52176;44.858;38.372;2023-02-21T02:03:10;2.62;78.83
64918;HTU21D;52176;44.858;38.372;2023-02-21T02:05:57;2.69;78.73
64918;HTU21D;52176;44.858;38.372;2023-02-21T02:08:42;2.74;78.69
64918;HTU21D;52176;44.858;38.372;2023-02-21T02:11:40;2.79;78.74
64918;HTU21D;52176;44.858;38.372;2023-02-21T02:17:26;2.87;78.68
64918;HTU21D;52176;44.858;38.372;2023-02-21T02:39:09;3.33;78.31
64918;HTU21D;52176;44.858;38.372;2023-02-21T02:44:28;3.33;78.42
64918;HTU21D;52176;44.858;38.372;2023-02-21T02:46:59;3.35;78.37
64918;HTU21D;52176;44.858;38.372;2023-02-21T02:49:28;3.39;78.54
64918;HTU21D;52176;44.858;38.372;2023-02-21T02:51:54;3.39;78.53
64918;HTU21D;52176;44.858;38.372;2023-02-21T02:54:27;3.43;78.52
64918;HTU21D;52176;44.858;38.372;2023-02-21T02:56:53;3.46;78.89
64918;HTU21D;52176;44.858;38.372;2023-02-21T02:59:22;3.49;79.86
64918;HTU21D;52176;44.858;38.372;2023-02-21T03:07:37;3.39;80.90
64918;HTU21D;52176;44.858;38.372;2023-02-21T03:10:20;3.33;81.44
64918;HTU21D;52176;44.858;38.372;2023-02-21T03:16:17;3.16;82.42
64918;HTU21D;52176;44.858;38.372;2023-02-21T03:21:42;3.06;82.86
64918;HTU21D;52176;44.858;38.372;2023-02-21T03:24:10;3.01;83.07
64918;HTU21D;52176;44.858;38.372;2023-02-21T03:26:40;2.98;83.39
64918;HTU21D;52176;44.858;38.372;2023-02-21T03:29:42;2.95;83.37
64918;HTU21D;52176;44.858;38.372;2023-02-21T03:32:29;2.90;83.71
64918;HTU21D;52176;44.858;38.372;2023-02-21T03:34:56;2.90;83.55
64918;HTU21D;52176;44.858;38.372;2023-02-21T03:37:34;2.88;83.66
64918;HTU21D;52176;44.858;38.372;2023-02-21T03:40:03;2.86;83.80
64918;HTU21D;52176;44.858;38.372;2023-02-21T03:42:32;2.86;83.78
64918;HTU21D;52176;44.858;38.372;2023-02-21T03:44:58;2.85;84.00
64918;HTU21D;52176;44.858;38.372;2023-02-21T03:47:25;2.85;84.23
64918;HTU21D;52176;44.858;38.372;2023-02-21T03:49:51;2.85;84.76
64918;HTU21D;52176;44.858;38.372;2023-02-21T03:52:17;2.88;85.26
64918;HTU21D;52176;44.858;38.372;2023-02-21T03:54:43;2.94;85.40
64918;HTU21D;52176;44.858;38.372;2023-02-21T03:57:14;2.97;86.75
64918;HTU21D;52176;44.858;38.372;2023-02-21T03:59:43;3.02;86.35
64918;HTU21D;52176;44.858;38.372;2023-02-21T04:02:09;3.08;86.75
64918;HTU21D;52176;44.858;38.372;2023-02-21T04:04:36;3.11;86.40
64918;HTU21D;52176;44.858;38.372;2023-02-21T04:07:13;3.15;87.62
64918;HTU21D;52176;44.858;38.372;2023-02-21T04:09:40;3.20;87.32
64918;HTU21D;52176;44.858;38.372;2023-02-21T04:12:09;3.26;88.08
64918;HTU21D;52176;44.858;38.372;2023-02-21T04:14:38;3.31;88.19
64918;HTU21D;52176;44.858;38.372;2023-02-21T04:17:04;3.39;88.13
64918;HTU21D;52176;44.858;38.372;2023-02-21T04:19:30;3.42;88.61
64918;HTU21D;52176;44.858;38.372;2023-02-21T04:21:56;3.48;88.50
64918;HTU21D;52176;44.858;38.372;2023-02-21T04:24:22;3.58;88.07
64918;HTU21D;52176;44.858;38.372;2023-02-21T04:26:50;3.65;87.94
64918;HTU21D;52176;44.858;38.372;2023-02-21T04:29:16;3.72;87.80
64918;HTU21D;52176;44.858;38.372;2023-02-21T04:31:42;3.77;87.54
64918;HTU21D;52176;44.858;38.372;2023-02-21T04:34:13;3.82;87.67
64918;HTU21D;52176;44.858;38.372;2023-02-21T04:36:42;3.91;87.41
64918;HTU21D;52176;44.858;38.372;2023-02-21T04:39:08;4.12;87.39
64918;HTU21D;52176;44.858;38.372;2023-02-21T04:41:34;4.34;86.95
64918;HTU21D;52176;44.858;38.372;2023-02-21T04:44:00;4.52;86.39
64918;HTU21D;52176;44.858;38.372;2023-02-21T04:46:30;4.68;85.74
64918;HTU21D;52176;44.858;38.372;2023-02-21T04:48:57;4.82;85.12
64918;HTU21D;52176;44.858;38.372;2023-02-21T04:51:23;4.94;84.30
64918;HTU21D;52176;44.858;38.372;2023-02-21T04:53:50;4.90;83.71
64918;HTU21D;52176;44.858;38.372;2023-02-21T04:56:20;4.91;83.66
64918;HTU21D;52176;44.858;38.372;2023-02-21T04:58:46;4.87;83.58
64918;HTU21D;52176;44.858;38.372;2023-02-21T05:01:14;4.82;83.71
64918;HTU21D;52176;44.858;38.372;2023-02-21T05:03:40;4.88;82.53
64918;HTU21D;52176;44.858;38.372;2023-02-21T05:06:06;4.89;82.13
64918;HTU21D;52176;44.858;38.372;2023-02-21T05:08:34;4.88;82.20
64918;HTU21D;52176;44.858;38.372;2023-02-21T05:11:01;4.87;82.36
64918;HTU21D;52176;44.858;38.372;2023-02-21T05:13:27;4.77;82.71
64918;HTU21D;52176;44.858;38.372;2023-02-21T05:15:53;4.68;82.65
64918;HTU21D;52176;44.858;38.372;2023-02-21T05:18:19;4.60;83.06
64918;HTU21D;52176;44.858;38.372;2023-02-21T05:20:48;4.54;83.65
64918;HTU21D;52176;44.858;38.372;2023-02-21T05:23:15;4.47;83.87
64918;HTU21D;52176;44.858;38.372;2023-02-21T05:25:43;4.42;84.37
64918;HTU21D;52176;44.858;38.372;2023-02-21T05:28:09;4.37;84.71
64918;HTU21D;52176;44.858;38.372;2023-02-21T05:30:35;4.30;85.32
64918;HTU21D;52176;44.858;38.372;2023-02-21T05:33:01;4.23;85.45
64918;HTU21D;52176;44.858;38.372;2023-02-21T05:35:27;4.20;85.71
64918;HTU21D;52176;44.858;38.372;2023-02-21T05:37:53;4.17;85.80
64918;HTU21D;52176;44.858;38.372;2023-02-21T05:40:19;4.15;85.82
64918;HTU21D;52176;44.858;38.372;2023-02-21T05:42:47;4.13;86.12
64918;HTU21D;52176;44.858;38.372;2023-02-21T05:45:12;4.09;86.39
64918;HTU21D;52176;44.858;38.372;2023-02-21T05:47:38;4.05;86.47
64918;HTU21D;52176;44.858;38.372;2023-02-21T05:50:05;4.05;86.19
64918;HTU21D;52176;44.858;38.372;2023-02-21T05:52:31;4.03;86.35
64918;HTU21D;52176;44.858;38.372;2023-02-21T05:54:57;3.99;86.70
64918;HTU21D;52176;44.858;38.372;2023-02-21T05:57:23;3.99;86.78
64918;HTU21D;52176;44.858;38.372;2023-02-21T05:59:49;3.98;87.06
64918;HTU21D;52176;44.858;38.372;2023-02-21T06:02:15;3.98;87.46
64918;HTU21D;52176;44.858;38.372;2023-02-21T06:04:41;3.99;87.46
64918;HTU21D;52176;44.858;38.372;2023-02-21T06:07:07;4.01;87.79
64918;HTU21D;52176;44.858;38.372;2023-02-21T06:09:33;4.05;87.64
64918;HTU21D;52176;44.858;38.372;2023-02-21T06:11:59;4.09;87.58
64918;HTU21D;52176;44.858;38.372;2023-02-21T06:14:25;4.14;87.38
64918;HTU21D;52176;44.858;38.372;2023-02-21T06:16:51;4.16;87.14
64918;HTU21D;52176;44.858;38.372;2023-02-21T06:19:18;4.20;86.83
64918;HTU21D;52176;44.858;38.372;2023-02-21T06:21:45;4.21;86.73
64918;HTU21D;52176;44.858;38.372;2023-02-21T06:24:11;4.20;86.54
64918;HTU21D;52176;44.858;38.372;2023-02-21T06:26:38;4.17;86.64
64918;HTU21D;52176;44.858;38.372;2023-02-21T06:29:06;4.14;86.80
64918;HTU21D;52176;44.858;38.372;2023-02-21T06:31:32;4.10;86.80
64918;HTU21D;52176;44.858;38.372;2023-02-21T06:33:59;4.06;86.87
64918;HTU21D;52176;44.858;38.372;2023-02-21T06:36:27;4.06;87.02
64918;HTU21D;52176;44.858;38.372;2023-02-21T06:38:55;4.04;87.03
64918;HTU21D;52176;44.858;38.372;2023-02-21T06:41:26;4.04;87.32
64918;HTU21D;52176;44.858;38.372;2023-02-21T06:43:55;3.99;87.43
64918;HTU21D;52176;44.858;38.372;2023-02-21T06:46:23;3.94;87.73
64918;HTU21D;52176;44.858;38.372;2023-02-21T06:48:50;3.92;88.11
64918;HTU21D;52176;44.858;38.372;2023-02-21T06:51:16;3.90;88.33
64918;HTU21D;52176;44.858;38.372;2023-02-21T06:53:43;3.92;88.60
64918;HTU21D;52176;44.858;38.372;2023-02-21T06:56:10;3.92;88.96
64918;HTU21D;52176;44.858;38.372;2023-02-21T06:58:36;3.99;89.02
64918;HTU21D;52176;44.858;38.372;2023-02-21T07:01:02;4.02;89.30
64918;HTU21D;52176;44.858;38.372;2023-02-21T07:03:29;4.08;89.38
64918;HTU21D;52176;44.858;38.372;2023-02-21T07:05:55;4.16;89.47
64918;HTU21D;52176;44.858;38.372;2023-02-21T07:08:21;4.21;89.26
64918;HTU21D;52176;44.858;38.372;2023-02-21T07:10:47;4.30;89.18
64918;HTU21D;52176;44.858;38.372;2023-02-21T07:13:13;4.36;89.05
64918;HTU21D;52176;44.858;38.372;2023-02-21T07:15:39;4.43;88.86
64918;HTU21D;52176;44.858;38.372;2023-02-21T08:15:31;5.62;88.20
64918;HTU21D;52176;44.858;38.372;2023-02-21T08:17:57;5.65;88.58
64918;HTU21D;52176;44.858;38.372;2023-02-21T08:20:23;5.76;88.46
64918;HTU21D;52176;44.858;38.372;2023-02-21T08:22:48;5.90;87.78
64918;HTU21D;52176;44.858;38.372;2023-02-21T08:25:15;5.89;87.67
64918;HTU21D;52176;44.858;38.372;2023-02-21T08:27:41;5.81;87.81
64918;HTU21D;52176;44.858;38.372;2023-02-21T08:30:08;5.77;88.13
64918;HTU21D;52176;44.858;38.372;2023-02-21T08:32:34;5.77;88.49
64918;HTU21D;52176;44.858;38.372;2023-02-21T08:35:00;5.74;88.49
64918;HTU21D;52176;44.858;38.372;2023-02-21T08:37:28;5.74;88.88
64918;HTU21D;52176;44.858;38.372;2023-02-21T08:39:57;5.91;89.26
64918;HTU21D;52176;44.858;38.372;2023-02-21T08:42:23;6.06;89.13
64918;HTU21D;52176;44.858;38.372;2023-02-21T08:44:49;6.23;88.25
64918;HTU21D;52176;44.858;38.372;2023-02-21T08:47:15;6.24;88.56
64918;HTU21D;52176;44.858;38.372;2023-02-21T08:49:45;6.35;88.62
64918;HTU21D;52176;44.858;38.372;2023-02-21T08:52:12;6.49;88.41
64918;HTU21D;52176;44.858;38.372;2023-02-21T08:54:38;6.60;87.77
64918;HTU21D;52176;44.858;38.372;2023-02-21T08:57:04;6.58;87.51
64918;HTU21D;52176;44.858;38.372;2023-02-21T08:59:30;6.55;87.80
64918;HTU21D;52176;44.858;38.372;2023-02-21T09:01:58;6.63;87.83
64918;HTU21D;52176;44.858;38.372;2023-02-21T09:04:24;6.70;87.12
64918;HTU21D;52176;44.858;38.372;2023-02-21T09:06:52;6.65;87.62
64918;HTU21D;52176;44.858;38.372;2023-02-21T09:09:18;6.68;87.62
64918;HTU21D;52176;44.858;38.372;2023-02-21T09:11:45;6.76;87.56
64918;HTU21D;52176;44.858;38.372;2023-02-21T09:14:13;6.88;86.90
64918;HTU21D;52176;44.858;38.372;2023-02-21T09:16:39;6.84;87.07
64918;HTU21D;52176;44.858;38.372;2023-02-21T09:19:05;6.78;87.03
64918;HTU21D;52176;44.858;38.372;2023-02-21T09:21:31;6.68;87.96
64918;HTU21D;52176;44.858;38.372;2023-02-21T09:23:57;6.76;88.54
64918;HTU21D;52176;44.858;38.372;2023-02-21T09:26:27;6.89;87.77
64918;HTU21D;52176;44.858;38.372;2023-02-21T09:28:56;6.91;87.56
64918;HTU21D;52176;44.858;38.372;2023-02-21T09:31:22;6.86;88.25
64918;HTU21D;52176;44.858;38.372;2023-02-21T09:33:48;6.97;87.92
64918;HTU21D;52176;44.858;38.372;2023-02-21T09:36:14;7.00;88.22
64918;HTU21D;52176;44.858;38.372;2023-02-21T09:38:40;7.10;88.16
64918;HTU21D;52176;44.858;38.372;2023-02-21T09:41:07;7.19;87.77
64918;HTU21D;52176;44.858;38.372;2023-02-21T09:43:35;7.27;87.71
64918;HTU21D;52176;44.858;38.372;2023-02-21T09:46:06;7.32;87.54
64918;HTU21D;52176;44.858;38.372;2023-02-21T09:48:33;7.42;86.71
64918;HTU21D;52176;44.858;38.372;2023-02-21T09:51:01;7.30;87.35
64918;HTU21D;52176;44.858;38.372;2023-02-21T09:53:29;7.34;86.86
64918;HTU21D;52176;44.858;38.372;2023-02-21T09:55:58;7.35;86.61
64918;HTU21D;52176;44.858;38.372;2023-02-21T09:58:25;7.25;87.31
64918;HTU21D;52176;44.858;38.372;2023-02-21T10:00:51;7.34;87.28
64918;HTU21D;52176;44.858;38.372;2023-02-21T10:06:20;7.40;86.57
64918;HTU21D;52176;44.858;38.372;2023-02-21T10:08:49;7.33;87.27
64918;HTU21D;52176;44.858;38.372;2023-02-21T10:13:59;7.39;87.32
64918;HTU21D;52176;44.858;38.372;2023-02-21T10:21:40;7.55;86.57
64918;HTU21D;52176;44.858;38.372;2023-02-21T10:24:14;7.46;86.65
64918;HTU21D;52176;44.858;38.372;2023-02-21T10:26:41;7.38;86.95
64918;HTU21D;52176;44.858;38.372;2023-02-21T10:29:15;7.31;87.36
64918;HTU21D;52176;44.858;38.372;2023-02-21T10:31:42;7.39;87.60
64918;HTU21D;52176;44.858;38.372;2023-02-21T10:34:15;7.53;86.69
64918;HTU21D;52176;44.858;38.372;2023-02-21T10:36:43;7.48;86.52
64918;HTU21D;52176;44.858;38.372;2023-02-21T10:39:10;7.45;86.63
64918;HTU21D;52176;44.858;38.372;2023-02-21T10:41:39;7.32;86.74
64918;HTU21D;52176;44.858;38.372;2023-02-21T10:44:13;7.22;87.61
64918;HTU21D;52176;44.858;38.372;2023-02-21T10:46:42;7.32;87.04
64918;HTU21D;52176;44.858;38.372;2023-02-21T10:49:16;7.29;87.89
64918;HTU21D;52176;44.858;38.372;2023-02-21T10:51:43;7.38;87.18
64918;HTU21D;52176;44.858;38.372;2023-02-21T10:54:22;7.32;87.89
64918;HTU21D;52176;44.858;38.372;2023-02-21T10:56:48;7.39;87.76
64918;HTU21D;52176;44.858;38.372;2023-02-21T10:59:21;7.47;87.57
64918;HTU21D;52176;44.858;38.372;2023-02-21T11:01:47;7.60;86.70
64918;HTU21D;52176;44.858;38.372;2023-02-21T11:06:48;7.63;86.71
64918;HTU21D;52176;44.858;38.372;2023-02-21T11:14:40;7.53;88.02
64918;HTU21D;52176;44.858;38.372;2023-02-21T11:22:17;7.73;87.93
64918;HTU21D;52176;44.858;38.372;2023-02-21T11:24:51;7.84;87.09
64918;HTU21D;52176;44.858;38.372;2023-02-21T11:27:18;7.85;86.78
64918;HTU21D;52176;44.858;38.372;2023-02-21T11:29:46;7.77;87.93
64918;HTU21D;52176;44.858;38.372;2023-02-21T11:32:24;7.89;87.37
64918;HTU21D;52176;44.858;38.372;2023-02-21T11:34:50;7.87;87.92
64918;HTU21D;52176;44.858;38.372;2023-02-21T11:37:16;8.01;87.35
64918;HTU21D;52176;44.858;38.372;2023-02-21T11:39:49;7.97;87.06
64918;HTU21D;52176;44.858;38.372;2023-02-21T11:42:26;7.94;87.13
64918;HTU21D;52176;44.858;38.372;2023-02-21T11:48:00;7.91;87.54
64918;HTU21D;52176;44.858;38.372;2023-02-21T11:50:28;7.90;88.09
64918;HTU21D;52176;44.858;38.372;2023-02-21T11:53:16;8.04;88.30
64918;HTU21D;52176;44.858;38.372;2023-02-21T11:55:48;8.18;87.27
64918;HTU21D;52176;44.858;38.372;2023-02-21T12:03:36;8.24;87.12
64918;HTU21D;52176;44.858;38.372;2023-02-21T12:06:10;8.21;86.98
64918;HTU21D;52176;44.858;38.372;2023-02-21T12:11:14;8.22;87.88
64918;HTU21D;52176;44.858;38.372;2023-02-21T12:21:29;8.45;86.92
64918;HTU21D;52176;44.858;38.372;2023-02-21T12:26:33;8.45;87.69
64918;HTU21D;52176;44.858;38.372;2023-02-21T12:29:13;8.57;87.56
64918;HTU21D;52176;44.858;38.372;2023-02-21T12:37:00;8.63;86.51
64918;HTU21D;52176;44.858;38.372;2023-02-21T12:44:35;8.43;87.07
64918;HTU21D;52176;44.858;38.372;2023-02-21T12:47:08;8.39;87.00
64918;HTU21D;52176;44.858;38.372;2023-02-21T12:49:43;8.36;87.26
64918;HTU21D;52176;44.858;38.372;2023-02-21T12:55:05;8.50;87.55
64918;HTU21D;52176;44.858;38.372;2023-02-21T12:57:37;8.55;87.40
64918;HTU21D;52176;44.858;38.372;2023-02-21T13:02:44;8.59;87.92
64918;HTU21D;52176;44.858;38.372;2023-02-21T13:05:36;8.74;87.25
64918;HTU21D;52176;44.858;38.372;2023-02-21T13:08:06;8.79;87.05
64918;HTU21D;52176;44.858;38.372;2023-02-21T13:10:38;8.92;86.32
64918;HTU21D;52176;44.858;38.372;2023-02-21T13:13:12;8.92;86.53
64918;HTU21D;52176;44.858;38.372;2023-02-21T13:15:41;9.03;86.31
64918;HTU21D;52176;44.858;38.372;2023-02-21T13:20:36;9.16;85.25
64918;HTU21D;52176;44.858;38.372;2023-02-21T13:28:29;9.22;85.06
64918;HTU21D;52176;44.858;38.372;2023-02-21T13:30:59;9.33;84.34
64918;HTU21D;52176;44.858;38.372;2023-02-21T13:35:56;9.33;83.66
64918;HTU21D;52176;44.858;38.372;2023-02-21T13:38:22;9.22;83.55
64918;HTU21D;52176;44.858;38.372;2023-02-21T13:41:01;9.07;83.77
64918;HTU21D;52176;44.858;38.372;2023-02-21T13:43:28;8.88;84.64
64918;HTU21D;52176;44.858;38.372;2023-02-21T13:46:21;8.91;84.60
64918;HTU21D;52176;44.858;38.372;2023-02-21T13:48:42;9.01;84.02
64918;HTU21D;52176;44.858;38.372;2023-02-21T13:51:08;8.92;84.00
64918;HTU21D;52176;44.858;38.372;2023-02-21T13:54:11;8.80;84.85
64918;HTU21D;52176;44.858;38.372;2023-02-21T13:56:45;8.87;84.29
64918;HTU21D;52176;44.858;38.372;2023-02-21T14:01:48;8.72;84.59
64918;HTU21D;52176;44.858;38.372;2023-02-21T14:07:00;8.71;85.42
64918;HTU21D;52176;44.858;38.372;2023-02-21T14:09:26;8.80;84.76
64918;HTU21D;52176;44.858;38.372;2023-02-21T14:11:51;8.75;85.04
64918;HTU21D;52176;44.858;38.372;2023-02-21T14:14:23;8.88;84.42
64918;HTU21D;52176;44.858;38.372;2023-02-21T14:16:57;8.80;84.35
64918;HTU21D;52176;44.858;38.372;2023-02-21T14:22:21;8.78;84.68
64918;HTU21D;52176;44.858;38.372;2023-02-21T14:24:49;8.75;84.54
64918;HTU21D;52176;44.858;38.372;2023-02-21T14:34:36;8.64;84.63
64918;HTU21D;52176;44.858;38.372;2023-02-21T14:39:42;8.70;84.64
64918;HTU21D;52176;44.858;38.372;2023-02-21T14:42:14;8.66;84.93
64918;HTU21D;52176;44.858;38.372;2023-02-21T14:52:21;8.76;84.39
64918;HTU21D;52176;44.858;38.372;2023-02-21T14:57:40;8.63;85.10
64918;HTU21D;52176;44.858;38.372;2023-02-21T15:00:13;8.68;85.13
64918;HTU21D;52176;44.858;38.372;2023-02-21T15:08:20;8.64;85.18
64918;HTU21D;52176;44.858;38.372;2023-02-21T15:10:27;8.71;84.74
64918;HTU21D;52176;44.858;38.372;2023-02-21T15:15:24;8.64;84.65
64918;HTU21D;52176;44.858;38.372;2023-02-21T15:18:08;8.59;84.71
64918;HTU21D;52176;44.858;38.372;2023-02-21T15:20:35;8.55;85.38
64918;HTU21D;52176;44.858;38.372;2023-02-21T15:23:12;8.66;85.22
64918;HTU21D;52176;44.858;38.372;2023-02-21T15:25:38;8.80;84.79
64918;HTU21D;52176;44.858;38.372;2023-02-21T15:28:06;8.90;84.13
64918;HTU21D;52176;44.858;38.372;2023-02-21T15:30:33;8.85;84.42
64918;HTU21D;52176;44.858;38.372;2023-02-21T15:35:29;9.00;83.79
64918;HTU21D;52176;44.858;38.372;2023-02-21T15:37:55;9.07;83.46
64918;HTU21D;52176;44.858;38.372;2023-02-21T15:40:22;9.14;82.95
64918;HTU21D;52176;44.858;38.372;2023-02-21T15:42:49;9.08;82.84
64918;HTU21D;52176;44.858;38.372;2023-02-21T15:45:17;9.01;82.93
64918;HTU21D;52176;44.858;38.372;2023-02-21T15:47:45;8.90;83.11
64918;HTU21D;52176;44.858;38.372;2023-02-21T15:53:09;8.72;83.88
64918;HTU21D;52176;44.858;38.372;2023-02-21T15:55:35;8.64;83.79
64918;HTU21D;52176;44.858;38.372;2023-02-21T16:00:30;8.46;84.55
64918;HTU21D;52176;44.858;38.372;2023-02-21T16:05:41;8.57;85.64
64918;HTU21D;52176;44.858;38.372;2023-02-21T16:08:10;8.66;84.90
64918;HTU21D;52176;44.858;38.372;2023-02-21T16:10:38;8.66;85.42
64918;HTU21D;52176;44.858;38.372;2023-02-21T16:13:05;8.76;84.80
64918;HTU21D;52176;44.858;38.372;2023-02-21T16:15:32;8.74;84.63
64918;HTU21D;52176;44.858;38.372;2023-02-21T16:18:03;8.68;84.62
64918;HTU21D;52176;44.858;38.372;2023-02-21T16:20:31;8.61;85.57
64918;HTU21D;52176;44.858;38.372;2023-02-21T16:25:54;8.76;84.87
64918;HTU21D;52176;44.858;38.372;2023-02-21T16:28:20;8.75;84.65
64918;HTU21D;52176;44.858;38.372;2023-02-21T16:30:46;8.68;85.20
64918;HTU21D;52176;44.858;38.372;2023-02-21T16:33:12;8.75;85.09
64918;HTU21D;52176;44.858;38.372;2023-02-21T16:35:41;8.82;84.45
64918;HTU21D;52176;44.858;38.372;2023-02-21T16:38:15;8.78;84.78
64918;HTU21D;52176;44.858;38.372;2023-02-21T16:40:41;8.83;84.54
64918;HTU21D;52176;44.858;38.372;2023-02-21T16:43:07;8.90;83.88
64918;HTU21D;52176;44.858;38.372;2023-02-21T16:45:39;8.80;84.32
64918;HTU21D;52176;44.858;38.372;2023-02-21T16:48:06;8.87;84.18
64918;HTU21D;52176;44.858;38.372;2023-02-21T16:52:59;8.97;83.77
64918;HTU21D;52176;44.858;38.372;2023-02-21T16:55:26;9.05;83.13
64918;HTU21D;52176;44.858;38.372;2023-02-21T16:57:53;8.90;83.86
64918;HTU21D;52176;44.858;38.372;2023-02-21T17:00:19;8.95;83.35
64918;HTU21D;52176;44.858;38.372;2023-02-21T17:02:46;8.86;83.91
64918;HTU21D;52176;44.858;38.372;2023-02-21T17:05:12;8.90;83.95
64918;HTU21D;52176;44.858;38.372;2023-02-21T17:07:38;8.91;83.93
64918;HTU21D;52176;44.858;38.372;2023-02-21T17:10:04;8.94;83.54
64918;HTU21D;52176;44.858;38.372;2023-02-21T17:12:30;8.89;83.54
64918;HTU21D;52176;44.858;38.372;2023-02-21T17:14:56;8.81;83.68
64918;HTU21D;52176;44.858;38.372;2023-02-21T17:17:22;8.72;84.81
64918;HTU21D;52176;44.858;38.372;2023-02-21T17:19:48;8.76;85.09
64918;HTU21D;52176;44.858;38.372;2023-02-21T17:22:14;8.87;84.93
64918;HTU21D;52176;44.858;38.372;2023-02-21T17:24:40;8.94;84.23
64918;HTU21D;52176;44.858;38.372;2023-02-21T17:27:06;8.90;84.07
64918;HTU21D;52176;44.858;38.372;2023-02-21T17:29:32;8.82;84.09
64918;HTU21D;52176;44.858;38.372;2023-02-21T17:31:58;8.73;84.95
64918;HTU21D;52176;44.858;38.372;2023-02-21T17:34:28;8.80;84.56
64918;HTU21D;52176;44.858;38.372;2023-02-21T17:36:54;8.73;84.38
64918;HTU21D;52176;44.858;38.372;2023-02-21T17:39:20;8.65;84.36
64918;HTU21D;52176;44.858;38.372;2023-02-21T17:41:46;8.56;85.45
64918;HTU21D;52176;44.858;38.372;2023-02-21T17:44:12;8.65;85.61
64918;HTU21D;52176;44.858;38.372;2023-02-21T17:46:38;8.75;84.91
64918;HTU21D;52176;44.858;38.372;2023-02-21T17:49:04;8.71;85.29
64918;HTU21D;52176;44.858;38.372;2023-02-21T17:51:30;8.77;85.18
64918;HTU21D;52176;44.858;38.372;2023-02-21T17:53:58;8.87;84.86
64918;HTU21D;52176;44.858;38.372;2023-02-21T17:56:24;8.94;84.17
64918;HTU21D;52176;44.858;38.372;2023-02-21T17:58:50;8.91;83.97
64918;HTU21D;52176;44.858;38.372;2023-02-21T18:01:17;8.78;84.87
64918;HTU21D;52176;44.858;38.372;2023-02-21T18:03:44;8.87;84.92
64918;HTU21D;52176;44.858;38.372;2023-02-21T18:06:10;8.95;84.64
64918;HTU21D;52176;44.858;38.372;2023-02-21T18:08:36;9.05;84.38
64918;HTU21D;52176;44.858;38.372;2023-02-21T18:11:02;9.14;83.68
64918;HTU21D;52176;44.858;38.372;2023-02-21T18:13:28;9.06;83.81
64918;HTU21D;52176;44.858;38.372;2023-02-21T18:15:54;8.97;84.45
64918;HTU21D;52176;44.858;38.372;2023-02-21T18:18:19;9.00;84.51
64918;HTU21D;52176;44.858;38.372;2023-02-21T18:20:45;9.08;84.39
64918;HTU21D;52176;44.858;38.372;2023-02-21T18:23:11;9.12;84.26
64918;HTU21D;52176;44.858;38.372;2023-02-21T18:25:38;9.16;84.19
64918;HTU21D;52176;44.858;38.372;2023-02-21T18:28:04;9.21;84.11
64918;HTU21D;52176;44.858;38.372;2023-02-21T18:30:30;9.26;84.08
64918;HTU21D;52176;44.858;38.372;2023-02-21T18:32:56;9.29;83.54
64918;HTU21D;52176;44.858;38.372;2023-02-21T18:35:21;9.21;83.59
64918;HTU21D;52176;44.858;38.372;2023-02-21T18:37:47;9.10;84.44
64918;HTU21D;52176;44.858;38.372;2023-02-21T18:40:14;9.16;83.96
64918;HTU21D;52176;44.858;38.372;2023-02-21T18:42:40;9.10;84.60
64918;HTU21D;52176;44.858;38.372;2023-02-21T18:45:08;9.15;84.64
64918;HTU21D;52176;44.858;38.372;2023-02-21T18:47:36;9.22;84.07
64918;HTU21D;52176;44.858;38.372;2023-02-21T18:50:02;9.20;84.51
64918;HTU21D;52176;44.858;38.372;2023-02-21T18:52:29;9.26;84.52
64918;HTU21D;52176;44.858;38.372;2023-02-21T18:54:55;9.34;83.94
64918;HTU21D;52176;44.858;38.372;2023-02-21T18:57:27;9.27;83.80
64918;HTU21D;52176;44.858;38.372;2023-02-21T18:59:54;9.20;83.92
64918;HTU21D;52176;44.858;38.372;2023-02-21T19:02:20;9.11;84.78
64918;HTU21D;52176;44.858;38.372;2023-02-21T19:04:46;9.17;84.41
64918;HTU21D;52176;44.858;38.372;2023-02-21T19:07:12;9.14;85.09
64918;HTU21D;52176;44.858;38.372;2023-02-21T19:09:41;9.22;85.37
64918;HTU21D;52176;44.858;38.372;2023-02-21T19:12:09;9.29;84.77
64918;HTU21D;52176;44.858;38.372;2023-02-21T19:14:35;9.25;84.76